首页
METAR-TAF:

METAR-TAF

机场 :

波隆納機場

博洛尼亚, 意大利

纬度: 44-32N, 经度: 011-18E, 海拔: 36米

当前天气观测

该预报发布于44分钟前的08:50 UTC
风速4节,风向北转西北,在西转西北之间变化
温度 13°C
湿度 62%
气压 1013 hPa
能见度10公里或以上
1500米以下无云,无积雨云

METAR: LIPE 290850Z 33004KT 300V010 CAVOK 13/06 Q1013

时间: 11:34 (09:34 UTC)

预报

该预报发布于4小时和34分钟前的05:00 UTC
预报有效从29日的 06点(UTC)到 30日的 06点(UTC)
风速6节,风向南转西南
能见度10公里或以上
散云层高于4000英尺
成为
从 29日的 09点(UTC)到 29日的 11点(UTC)
风速10节,风向
成为
从 29日的 16点(UTC)到 29日的 18点(UTC)
风速5节,风向多变

TAF: LIPE 290500Z 2906/3006 20006KT 9999 SCT040 BECMG 2909/2911 08010KT BECMG 2916/2918 VRB05KT

超过4000个机场的气象观测和天气预报(METAR&TAF报告)。

可查询的气象台以黄色和红色小点在地图上表示。

将鼠标移到小点上方,可查看气象台名称。

然后点击查看天气观测和预报。

如需切换地图:点击带黑十字的绿色按钮放大地图;点击带横线的绿色按钮缩小地图;或者点击绿色箭头查看邻近地区的地图。


METAR-TAF: